createdAt,value
2023-01-17T00:00:30.890Z,38.89
2023-01-17T00:02:57.673Z,40.71
2023-01-17T00:05:42.893Z,38.00
2023-01-17T00:08:28.298Z,36.62
2023-01-17T00:10:55.078Z,35.99
2023-01-17T00:13:21.950Z,35.78
2023-01-17T00:15:48.752Z,35.51
2023-01-17T00:18:16.946Z,35.25
2023-01-17T00:21:02.565Z,35.32
2023-01-17T00:23:48.014Z,35.11
2023-01-17T00:26:14.777Z,35.00
2023-01-17T00:28:41.473Z,35.32
2023-01-17T00:31:08.218Z,37.33
2023-01-17T00:33:34.994Z,40.91
2023-01-17T00:36:01.709Z,38.29
2023-01-17T00:38:28.437Z,37.02
2023-01-17T00:40:55.162Z,36.08
2023-01-17T00:43:40.369Z,35.72
2023-01-17T00:46:25.853Z,35.50
2023-01-17T00:49:11.092Z,35.36
2023-01-17T00:51:56.450Z,35.27
2023-01-17T00:54:41.727Z,35.21
2023-01-17T00:57:26.991Z,35.00
2023-01-17T01:00:12.385Z,35.15
2023-01-17T01:02:57.747Z,35.43
2023-01-17T01:05:43.176Z,36.19
2023-01-17T01:08:28.720Z,35.53
2023-01-17T01:11:14.088Z,35.23
2023-01-17T01:13:59.542Z,35.50
2023-01-17T01:16:44.796Z,38.44
2023-01-17T01:19:30.334Z,40.06
2023-01-17T01:22:15.648Z,37.13
2023-01-17T01:25:00.959Z,36.39
2023-01-17T01:27:46.315Z,35.68
2023-01-17T01:30:31.648Z,35.39
2023-01-17T01:33:17.014Z,35.32
2023-01-17T01:35:43.836Z,35.19
2023-01-17T01:38:10.626Z,35.23
2023-01-17T01:40:37.355Z,35.07
2023-01-17T01:43:05.889Z,35.06
2023-01-17T01:45:32.673Z,37.02
2023-01-17T01:47:59.471Z,39.71
2023-01-17T01:50:26.227Z,39.60
2023-01-17T01:52:52.974Z,37.34
2023-01-17T01:55:19.746Z,36.50
2023-01-17T01:57:46.758Z,35.99
2023-01-17T02:00:14.473Z,35.65
2023-01-17T02:02:41.211Z,35.69
2023-01-17T02:05:07.960Z,35.27
2023-01-17T02:07:34.722Z,35.38
2023-01-17T02:10:01.455Z,35.55
2023-01-17T02:12:28.303Z,35.09
2023-01-17T02:14:55.422Z,35.12
2023-01-17T02:17:22.153Z,36.81
2023-01-17T02:19:48.907Z,38.56
2023-01-17T02:22:15.634Z,40.58
2023-01-17T02:24:42.382Z,37.83
2023-01-17T02:27:09.130Z,37.02
2023-01-17T02:29:35.864Z,36.39
2023-01-17T02:32:03.149Z,36.07
2023-01-17T02:34:29.924Z,35.83
2023-01-17T02:36:57.607Z,35.67
2023-01-17T02:39:24.395Z,35.60
2023-01-17T02:41:51.140Z,35.33
2023-01-17T02:44:17.885Z,35.08
2023-01-17T02:46:44.755Z,34.95
2023-01-17T02:49:11.623Z,35.16
2023-01-17T02:51:38.858Z,34.85
2023-01-17T02:54:05.584Z,35.50
2023-01-17T02:56:32.694Z,37.98
2023-01-17T02:58:59.523Z,41.14
2023-01-17T03:01:26.402Z,38.10
2023-01-17T03:03:53.193Z,36.97
2023-01-17T03:06:19.966Z,36.40
2023-01-17T03:08:46.726Z,36.03
2023-01-17T03:11:13.523Z,35.75
2023-01-17T03:13:41.083Z,35.66
2023-01-17T03:16:07.918Z,35.21
2023-01-17T03:18:34.814Z,35.36
2023-01-17T03:21:01.614Z,35.01
2023-01-17T03:23:28.475Z,35.00
2023-01-17T03:25:55.277Z,35.02
2023-01-17T03:28:22.032Z,34.62
2023-01-17T03:30:48.854Z,36.13
2023-01-17T03:33:15.639Z,38.03
2023-01-17T03:35:42.361Z,40.70
2023-01-17T03:38:09.094Z,38.85
2023-01-17T03:40:35.825Z,37.25
2023-01-17T03:43:02.545Z,36.62
2023-01-17T03:45:29.323Z,36.25
2023-01-17T03:47:57.647Z,36.03
2023-01-17T03:50:24.379Z,35.63
2023-01-17T03:52:51.220Z,35.60
2023-01-17T03:55:17.965Z,35.26
2023-01-17T03:57:44.693Z,35.29
2023-01-17T04:00:11.421Z,34.98
2023-01-17T04:02:38.265Z,34.93
2023-01-17T04:05:05.149Z,34.88
2023-01-17T04:07:31.874Z,36.79
2023-01-17T04:09:58.622Z,37.70
2023-01-17T04:12:25.437Z,41.25
2023-01-17T04:14:52.199Z,39.27
2023-01-17T04:17:18.959Z,37.60
2023-01-17T04:19:45.693Z,36.89
2023-01-17T04:22:12.424Z,36.31
2023-01-17T04:24:39.245Z,36.09
2023-01-17T04:27:06.103Z,35.96
2023-01-17T04:29:32.934Z,35.65
2023-01-17T04:31:59.764Z,35.40
2023-01-17T04:34:26.818Z,35.47
2023-01-17T04:36:53.567Z,35.31
2023-01-17T04:39:20.347Z,35.26
2023-01-17T04:41:47.148Z,35.02
2023-01-17T04:44:13.927Z,34.69
2023-01-17T04:46:40.683Z,34.92
2023-01-17T04:49:07.405Z,36.66
2023-01-17T04:51:34.185Z,37.74
2023-01-17T04:54:00.947Z,41.28
2023-01-17T04:56:27.750Z,38.98
2023-01-17T04:58:54.520Z,37.39
2023-01-17T05:01:21.426Z,36.79
2023-01-17T05:03:48.213Z,36.07
2023-01-17T05:06:14.960Z,35.86
2023-01-17T05:08:41.714Z,35.75
2023-01-17T05:11:08.443Z,35.57
2023-01-17T05:13:35.172Z,35.37
2023-01-17T05:16:02.019Z,35.26
2023-01-17T05:18:28.861Z,35.27
2023-01-17T05:20:55.596Z,35.05
2023-01-17T05:23:22.333Z,35.21
2023-01-17T05:25:49.057Z,35.31
2023-01-17T05:28:15.778Z,35.37
2023-01-17T05:30:42.590Z,37.47
2023-01-17T05:33:10.153Z,40.94
2023-01-17T05:35:36.983Z,37.97
2023-01-17T05:38:03.812Z,36.92
2023-01-17T05:40:30.873Z,36.32
2023-01-17T05:42:57.685Z,35.84
2023-01-17T05:45:24.510Z,35.66
2023-01-17T05:47:51.226Z,35.34
2023-01-17T05:50:18.125Z,35.39
2023-01-17T05:52:44.990Z,35.26
2023-01-17T05:55:11.728Z,35.02
2023-01-17T05:57:38.486Z,34.91
2023-01-17T06:00:05.232Z,34.79
2023-01-17T06:02:31.977Z,35.34
2023-01-17T06:04:58.724Z,37.78
2023-01-17T06:07:25.522Z,38.50
2023-01-17T06:09:52.250Z,39.49
2023-01-17T06:12:19.769Z,37.39
2023-01-17T06:14:47.773Z,36.60
2023-01-17T06:17:14.517Z,36.22
2023-01-17T06:19:41.252Z,35.91
2023-01-17T06:22:08.200Z,35.89
2023-01-17T06:24:34.986Z,35.51
2023-01-17T06:27:01.770Z,35.45
2023-01-17T06:29:28.506Z,35.18
2023-01-17T06:31:55.265Z,35.08
2023-01-17T06:34:22.034Z,35.14
2023-01-17T06:36:48.811Z,34.82
2023-01-17T06:39:15.559Z,34.98
2023-01-17T06:41:42.906Z,35.09
2023-01-17T06:44:09.762Z,37.75
2023-01-17T06:46:36.591Z,38.66
2023-01-17T06:49:03.337Z,39.75
2023-01-17T06:51:30.120Z,37.69
2023-01-17T06:53:56.847Z,36.75
2023-01-17T06:56:23.676Z,36.30
2023-01-17T06:58:50.595Z,36.16
2023-01-17T07:01:17.458Z,35.68
2023-01-17T07:03:44.384Z,35.67
2023-01-17T07:06:11.479Z,35.54
2023-01-17T07:08:38.303Z,35.20
2023-01-17T07:11:05.102Z,35.15
2023-01-17T07:13:31.872Z,35.01
2023-01-17T07:15:58.661Z,34.99
2023-01-17T07:18:25.402Z,35.11
2023-01-17T07:20:52.171Z,37.09
2023-01-17T07:23:19.275Z,37.60
2023-01-17T07:25:46.006Z,41.84
2023-01-17T07:28:12.746Z,38.49
2023-01-17T07:30:39.487Z,37.21
2023-01-17T07:33:06.313Z,36.79
2023-01-17T07:35:33.099Z,36.29
2023-01-17T07:38:00.013Z,36.22
2023-01-17T07:40:27.094Z,36.01
2023-01-17T07:42:54.175Z,35.67
2023-01-17T07:45:21.742Z,35.54
2023-01-17T07:47:49.887Z,35.23
2023-01-17T07:50:16.718Z,35.26
2023-01-17T07:52:43.457Z,35.14
2023-01-17T07:55:10.369Z,35.17
2023-01-17T07:57:37.138Z,34.89
2023-01-17T08:00:03.888Z,35.89
2023-01-17T08:02:30.691Z,37.40
2023-01-17T08:04:57.444Z,37.20
2023-01-17T08:07:24.184Z,40.23
2023-01-17T08:09:51.760Z,38.44
2023-01-17T08:12:18.519Z,36.85
2023-01-17T08:14:45.254Z,36.61
2023-01-17T08:17:12.010Z,36.15
2023-01-17T08:19:38.747Z,35.91
2023-01-17T08:22:05.513Z,35.74
2023-01-17T08:24:32.259Z,35.62
2023-01-17T08:26:59.102Z,35.32
2023-01-17T08:29:25.900Z,35.63
2023-01-17T08:31:52.679Z,35.25
2023-01-17T08:34:19.538Z,35.13
2023-01-17T08:36:47.780Z,35.51
2023-01-17T08:39:14.545Z,37.55
2023-01-17T08:41:41.375Z,37.19
2023-01-17T08:44:08.106Z,40.46
2023-01-17T08:46:34.906Z,37.60
2023-01-17T08:49:02.635Z,37.08
2023-01-17T08:51:29.766Z,36.55
2023-01-17T08:53:56.516Z,36.17
2023-01-17T08:56:27.217Z,36.02
2023-01-17T08:58:53.985Z,35.55
2023-01-17T09:01:20.818Z,35.63
2023-01-17T09:03:47.604Z,35.69
2023-01-17T09:06:14.330Z,35.30
2023-01-17T09:08:41.069Z,35.13
2023-01-17T09:11:07.864Z,35.19
2023-01-17T09:13:34.604Z,35.02
2023-01-17T09:16:01.332Z,34.91
2023-01-17T09:18:28.209Z,37.00
2023-01-17T09:20:55.229Z,37.52
2023-01-17T09:23:22.162Z,41.55
2023-01-17T09:25:48.938Z,40.08
2023-01-17T09:28:15.717Z,38.06
2023-01-17T09:30:42.493Z,36.83
2023-01-17T09:33:09.303Z,36.52
2023-01-17T09:35:36.041Z,36.42
2023-01-17T09:38:02.758Z,36.14
2023-01-17T09:40:29.591Z,35.50
2023-01-17T09:42:57.940Z,35.80
2023-01-17T09:45:25.417Z,35.70
2023-01-17T09:47:52.271Z,35.41
2023-01-17T09:50:19.025Z,35.28
2023-01-17T09:52:45.964Z,35.20
2023-01-17T09:55:12.751Z,35.22
2023-01-17T09:57:39.550Z,35.15
2023-01-17T10:00:06.406Z,35.08
2023-01-17T10:02:33.261Z,37.40
2023-01-17T10:05:00.140Z,38.89
2023-01-17T10:07:26.986Z,41.58
2023-01-17T10:09:53.766Z,38.48
2023-01-17T10:12:20.497Z,37.12
2023-01-17T10:14:47.279Z,36.58
2023-01-17T10:17:15.985Z,36.28
2023-01-17T10:19:42.718Z,35.90
2023-01-17T10:22:10.142Z,35.64
2023-01-17T10:24:37.029Z,35.53
2023-01-17T10:27:03.806Z,35.49
2023-01-17T10:29:30.674Z,35.58
2023-01-17T10:31:57.563Z,35.43
2023-01-17T10:34:24.288Z,35.21
2023-01-17T10:36:51.067Z,35.33
2023-01-17T10:39:17.818Z,35.25
2023-01-17T10:41:44.617Z,37.07
2023-01-17T10:44:11.401Z,37.17
2023-01-17T10:46:38.170Z,41.33
2023-01-17T10:49:05.007Z,38.71
2023-01-17T10:51:31.877Z,37.53
2023-01-17T10:54:00.602Z,36.85
2023-01-17T10:56:28.554Z,36.43
2023-01-17T10:58:55.305Z,36.25
2023-01-17T11:01:22.318Z,35.76
2023-01-17T11:03:49.213Z,35.84
2023-01-17T11:06:16.142Z,35.66
2023-01-17T11:08:42.908Z,35.61
2023-01-17T11:11:09.658Z,35.50
2023-01-17T11:13:36.411Z,35.44
2023-01-17T11:16:03.304Z,35.04
2023-01-17T11:18:30.088Z,35.13
2023-01-17T11:20:56.832Z,36.46
2023-01-17T11:23:23.588Z,37.41
2023-01-17T11:25:50.432Z,40.23
2023-01-17T11:28:17.180Z,39.93
2023-01-17T11:30:44.030Z,37.95
2023-01-17T11:33:10.789Z,37.00
2023-01-17T11:35:37.527Z,36.56
2023-01-17T11:38:04.649Z,36.39
2023-01-17T11:40:31.480Z,35.97
2023-01-17T11:42:58.239Z,35.77
2023-01-17T11:45:25.120Z,35.74
2023-01-17T11:47:51.866Z,35.54
2023-01-17T11:50:18.608Z,35.56
2023-01-17T11:52:45.410Z,35.30
2023-01-17T11:55:13.078Z,35.39
2023-01-17T11:57:39.809Z,35.51
2023-01-17T12:00:07.427Z,35.26
2023-01-17T12:02:34.166Z,37.48
2023-01-17T12:05:00.961Z,37.20
2023-01-17T12:07:27.785Z,41.99
2023-01-17T12:09:54.707Z,39.00
2023-01-17T12:12:40.243Z,37.81
2023-01-17T12:15:07.288Z,36.87
2023-01-17T12:17:34.061Z,36.67
2023-01-17T12:20:01.130Z,36.57
2023-01-17T12:22:28.020Z,36.31
2023-01-17T12:24:54.791Z,35.79
2023-01-17T12:27:22.793Z,35.86
2023-01-17T12:29:49.598Z,35.34
2023-01-17T12:32:16.347Z,35.69
2023-01-17T12:34:43.087Z,35.54
2023-01-17T12:37:09.867Z,35.33
2023-01-17T12:39:36.637Z,35.16
2023-01-17T12:42:03.431Z,35.69
2023-01-17T12:44:30.270Z,37.45
2023-01-17T12:46:57.147Z,36.66
2023-01-17T12:49:23.973Z,40.56
2023-01-17T12:51:50.910Z,37.92
2023-01-17T12:54:17.676Z,37.16
2023-01-17T12:56:44.510Z,36.87
2023-01-17T12:59:11.258Z,36.51
2023-01-17T13:01:42.890Z,36.16
2023-01-17T13:04:09.729Z,35.90
2023-01-17T13:06:36.491Z,35.85
2023-01-17T13:09:03.314Z,35.68
2023-01-17T13:11:30.268Z,35.90
2023-01-17T13:14:00.057Z,35.72
2023-01-17T13:16:26.844Z,35.40
2023-01-17T13:18:53.696Z,35.43
2023-01-17T13:21:20.582Z,35.47
2023-01-17T13:23:47.330Z,37.57
2023-01-17T13:26:14.237Z,37.24
2023-01-17T13:28:40.987Z,41.97
2023-01-17T13:31:07.954Z,39.26
2023-01-17T13:33:34.803Z,37.52
2023-01-17T13:36:01.557Z,37.03
2023-01-17T13:38:28.571Z,36.38
2023-01-17T13:40:55.482Z,36.29
2023-01-17T13:43:22.853Z,36.15
2023-01-17T13:45:50.264Z,36.06
2023-01-17T13:48:17.976Z,35.95
2023-01-17T13:50:44.729Z,35.90
2023-01-17T13:53:11.538Z,35.68
2023-01-17T13:55:38.326Z,35.53
2023-01-17T13:58:05.081Z,35.25
2023-01-17T14:00:31.864Z,35.37
2023-01-17T14:02:58.629Z,35.99
2023-01-17T14:05:25.503Z,37.69
2023-01-17T14:07:52.241Z,37.13
2023-01-17T14:10:18.982Z,42.07
2023-01-17T14:12:45.716Z,38.79
2023-01-17T14:15:12.452Z,37.49
2023-01-17T14:17:39.241Z,37.07
2023-01-17T14:20:05.979Z,36.96
2023-01-17T14:22:32.784Z,36.57
2023-01-17T14:24:59.528Z,36.11
2023-01-17T14:27:26.299Z,36.10
2023-01-17T14:29:53.257Z,35.93
2023-01-17T14:32:20.207Z,35.68
2023-01-17T14:34:46.936Z,35.59
2023-01-17T14:37:13.780Z,35.66
2023-01-17T14:39:40.551Z,35.44
2023-01-17T14:42:07.301Z,35.41
2023-01-17T14:44:34.393Z,35.51
2023-01-17T14:47:01.183Z,37.15
2023-01-17T14:49:27.947Z,37.30
2023-01-17T14:51:54.675Z,40.59
2023-01-17T14:54:21.474Z,39.60
2023-01-17T14:56:48.383Z,38.01
2023-01-17T14:59:16.820Z,36.97
2023-01-17T15:01:50.051Z,36.48
2023-01-17T15:04:22.033Z,36.55
2023-01-17T15:06:48.790Z,36.13
2023-01-17T15:09:15.680Z,36.07
2023-01-17T15:11:42.473Z,36.04
2023-01-17T15:14:09.265Z,35.84
2023-01-17T15:16:36.189Z,35.82
2023-01-17T15:19:02.991Z,35.67
2023-01-17T15:21:29.894Z,35.28
2023-01-17T15:23:56.721Z,35.23
2023-01-17T15:26:23.523Z,35.15
2023-01-17T15:28:50.366Z,37.50
2023-01-17T15:31:17.119Z,37.11
2023-01-17T15:33:43.961Z,41.26
2023-01-17T15:36:11.147Z,38.91
2023-01-17T15:38:39.233Z,37.52
2023-01-17T15:41:06.206Z,37.01
2023-01-17T15:43:35.754Z,36.70
2023-01-17T15:46:03.452Z,36.14
2023-01-17T15:48:30.310Z,36.13
2023-01-17T15:50:57.613Z,35.94
2023-01-17T15:53:24.388Z,35.82
2023-01-17T15:55:51.152Z,35.81
2023-01-17T15:58:18.025Z,35.63
2023-01-17T16:00:46.819Z,35.57
2023-01-17T16:03:13.681Z,35.44
2023-01-17T16:05:43.394Z,35.24
2023-01-17T16:08:10.237Z,35.47
2023-01-17T16:10:37.688Z,37.44
2023-01-17T16:13:04.440Z,37.01
2023-01-17T16:15:31.253Z,41.07
2023-01-17T16:17:58.082Z,38.66
2023-01-17T16:20:25.205Z,37.50
2023-01-17T16:22:52.392Z,36.92
2023-01-17T16:25:19.322Z,36.58
2023-01-17T16:27:46.073Z,36.45
2023-01-17T16:30:15.052Z,36.16
2023-01-17T16:32:42.347Z,36.05
2023-01-17T16:35:09.107Z,35.82
2023-01-17T16:37:35.831Z,35.82
2023-01-17T16:40:02.572Z,35.49
2023-01-17T16:42:29.417Z,35.44
2023-01-17T16:44:56.298Z,35.36
2023-01-17T16:47:23.139Z,35.26
2023-01-17T16:49:50.056Z,35.17
2023-01-17T16:52:16.823Z,37.26
2023-01-17T16:54:43.561Z,37.06
2023-01-17T16:57:10.470Z,40.68
2023-01-17T16:59:50.111Z,38.89
2023-01-17T17:02:18.535Z,37.36
2023-01-17T17:04:45.325Z,36.75
2023-01-17T17:07:12.117Z,36.49
2023-01-17T17:09:38.894Z,36.22
2023-01-17T17:12:05.729Z,35.99
2023-01-17T17:14:32.555Z,35.78
2023-01-17T17:17:02.046Z,35.79
2023-01-17T17:19:28.820Z,35.50
2023-01-17T17:21:55.554Z,35.84
2023-01-17T17:24:22.296Z,35.45
2023-01-17T17:26:49.034Z,35.16
2023-01-17T17:29:15.920Z,35.19
2023-01-17T17:31:42.670Z,37.25
2023-01-17T17:34:09.418Z,37.29
2023-01-17T17:36:36.335Z,40.36
2023-01-17T17:39:03.550Z,39.70
2023-01-17T17:41:30.382Z,37.86
2023-01-17T17:43:57.206Z,36.76
2023-01-17T17:46:24.059Z,36.60
2023-01-17T17:48:50.820Z,36.31
2023-01-17T17:51:17.547Z,36.18
2023-01-17T17:53:44.291Z,35.94
2023-01-17T17:56:11.035Z,35.70
2023-01-17T17:58:37.850Z,35.74
2023-01-17T18:01:04.663Z,35.50
2023-01-17T18:03:31.460Z,35.34
2023-01-17T18:05:58.201Z,35.37
2023-01-17T18:08:24.947Z,35.21
2023-01-17T18:10:51.716Z,35.26
2023-01-17T18:13:18.602Z,36.82
2023-01-17T18:15:45.370Z,37.24
2023-01-17T18:18:12.099Z,41.29
2023-01-17T18:20:40.026Z,39.52
2023-01-17T18:23:06.760Z,37.89
2023-01-17T18:25:35.593Z,37.00
2023-01-17T18:28:03.126Z,36.56
2023-01-17T18:30:34.836Z,36.45
2023-01-17T18:33:01.714Z,36.03
2023-01-17T18:35:28.503Z,35.69
2023-01-17T18:37:55.479Z,35.77
2023-01-17T18:40:22.334Z,35.44
2023-01-17T18:42:49.088Z,35.28
2023-01-17T18:45:15.920Z,35.14
2023-01-17T18:47:42.646Z,35.12
2023-01-17T18:50:09.398Z,35.02
2023-01-17T18:52:36.956Z,35.91
2023-01-17T18:55:03.698Z,37.03
2023-01-17T18:57:30.509Z,37.44
2023-01-17T18:59:57.487Z,40.13
2023-01-17T19:02:24.288Z,38.49
2023-01-17T19:04:51.020Z,37.21
2023-01-17T19:07:17.848Z,36.56
2023-01-17T19:09:44.664Z,36.34
2023-01-17T19:12:11.397Z,36.32
2023-01-17T19:14:38.190Z,35.79
2023-01-17T19:17:05.123Z,35.57
2023-01-17T19:19:31.869Z,35.69
2023-01-17T19:21:58.622Z,35.66
2023-01-17T19:24:25.631Z,35.27
2023-01-17T19:26:53.197Z,35.30
2023-01-17T19:29:20.078Z,35.23
2023-01-17T19:31:46.881Z,35.93
2023-01-17T19:34:14.560Z,37.34
2023-01-17T19:36:41.359Z,40.54
2023-01-17T19:39:09.282Z,39.67
2023-01-17T19:41:36.096Z,37.88
2023-01-17T19:44:03.060Z,37.11
2023-01-17T19:46:29.807Z,36.48
2023-01-17T19:48:56.567Z,36.09
2023-01-17T19:51:23.323Z,36.02
2023-01-17T19:53:50.062Z,35.76
2023-01-17T19:56:16.797Z,35.56
2023-01-17T19:58:43.548Z,35.57
2023-01-17T20:01:10.490Z,35.36
2023-01-17T20:03:37.555Z,35.16
2023-01-17T20:06:04.350Z,35.14
2023-01-17T20:08:31.174Z,35.09
2023-01-17T20:10:57.909Z,34.98
2023-01-17T20:13:25.132Z,36.97
2023-01-17T20:15:51.880Z,37.67
2023-01-17T20:18:19.285Z,40.95
2023-01-17T20:20:56.929Z,38.32
2023-01-17T20:23:24.333Z,37.33
2023-01-17T20:25:51.108Z,36.69
2023-01-17T20:28:17.859Z,36.22
2023-01-17T20:30:45.454Z,36.08
2023-01-17T20:33:14.866Z,35.65
2023-01-17T20:35:41.605Z,35.58
2023-01-17T20:38:10.303Z,35.45
2023-01-17T20:40:37.110Z,35.52
2023-01-17T20:43:03.922Z,35.22
2023-01-17T20:45:30.761Z,35.31
2023-01-17T20:47:57.975Z,35.02
2023-01-17T20:50:24.938Z,34.88
2023-01-17T20:52:51.681Z,36.84
2023-01-17T20:55:18.435Z,37.02
2023-01-17T20:57:45.179Z,40.10
2023-01-17T21:00:12.134Z,40.01
2023-01-17T21:02:38.923Z,38.18
2023-01-17T21:05:05.740Z,37.23
2023-01-17T21:07:32.485Z,36.54
2023-01-17T21:09:59.240Z,36.34
2023-01-17T21:12:25.960Z,35.96
2023-01-17T21:14:53.537Z,35.98
2023-01-17T21:17:20.306Z,35.50
2023-01-17T21:19:47.036Z,35.37
2023-01-17T21:22:16.525Z,35.42
2023-01-17T21:24:43.267Z,35.30
2023-01-17T21:27:12.249Z,35.54
2023-01-17T21:29:39.074Z,35.51
2023-01-17T21:32:08.620Z,35.02
2023-01-17T21:34:35.399Z,35.07
2023-01-17T21:37:02.223Z,35.36
2023-01-17T21:39:29.240Z,37.52
2023-01-17T21:41:55.973Z,38.23
2023-01-17T21:44:22.813Z,40.23
2023-01-17T21:46:53.467Z,38.05
2023-01-17T21:49:21.916Z,37.15
2023-01-17T21:51:54.606Z,36.69
2023-01-17T21:54:41.332Z,36.10
2023-01-17T21:57:27.187Z,35.65
2023-01-17T21:59:53.933Z,35.55
2023-01-17T22:02:20.750Z,35.46
2023-01-17T22:04:47.555Z,35.17
2023-01-17T22:07:14.355Z,35.26
2023-01-17T22:09:41.101Z,35.14
2023-01-17T22:12:07.843Z,35.14
2023-01-17T22:14:34.575Z,35.13
2023-01-17T22:17:01.323Z,34.84
2023-01-17T22:19:28.125Z,34.75
2023-01-17T22:21:54.899Z,36.18
2023-01-17T22:24:22.258Z,36.87
2023-01-17T22:26:49.002Z,39.64
2023-01-17T22:29:18.640Z,39.23
2023-01-17T22:31:45.451Z,37.52
2023-01-17T22:34:13.438Z,36.76
2023-01-17T22:36:40.197Z,36.19
2023-01-17T22:39:06.992Z,35.87
2023-01-17T22:41:35.089Z,35.60
2023-01-17T22:44:08.368Z,35.53
2023-01-17T22:46:36.971Z,35.60
2023-01-17T22:49:03.963Z,35.18
2023-01-17T22:51:30.749Z,35.26
2023-01-17T22:53:57.551Z,35.12
2023-01-17T22:56:24.311Z,35.00
2023-01-17T22:58:51.103Z,35.07
2023-01-17T23:01:17.908Z,36.31
2023-01-17T23:03:44.722Z,36.62
2023-01-17T23:06:11.589Z,39.27
2023-01-17T23:08:38.392Z,38.83
2023-01-17T23:11:23.942Z,37.58
2023-01-17T23:13:50.690Z,36.51
2023-01-17T23:16:36.043Z,36.07
2023-01-17T23:19:21.278Z,35.98
2023-01-17T23:22:06.617Z,35.70
2023-01-17T23:24:33.370Z,35.26
2023-01-17T23:27:18.767Z,35.45
2023-01-17T23:29:45.586Z,35.11
2023-01-17T23:32:12.341Z,35.11
2023-01-17T23:34:39.071Z,34.79
2023-01-17T23:37:05.828Z,34.88
2023-01-17T23:39:32.582Z,34.79
2023-01-17T23:42:18.105Z,35.46
2023-01-17T23:44:44.839Z,36.72
2023-01-17T23:47:11.648Z,38.54
2023-01-17T23:49:38.380Z,39.62
2023-01-17T23:52:05.199Z,38.10
2023-01-17T23:54:31.976Z,36.75
2023-01-17T23:56:58.752Z,36.40
2023-01-17T23:59:25.524Z,35.93
